Time;durP1;ratioP1;P1;durP2;ratioP2;P2;SDS_P1;SDS_P2;PMS_P1;PMS_P2;Temp;Humidity;BMP_temperature;BMP_pressure;BME280_temperature;BME280_humidity;BME280_pressure;Samples;Min_cycle;Max_cycle;Signal;HPM_P1;HPM_P2
2023/01/30 00:03:00;;;;;;;10.00;6.60;;;;;;;;;;10437384;28;20032;-47
2023/01/30 00:08:01;;;;;;;9.85;6.88;;;;;;;;;;10430432;28;20136;-48
2023/01/30 00:13:02;;;;;;;10.63;6.65;;;;;;;;;;10424930;28;20025;-47
2023/01/30 00:18:03;;;;;;;8.68;6.30;;;;;;;;;;10418528;28;20025;-48
2023/01/30 00:23:04;;;;;;;8.75;6.63;;;;;;;;;;10432157;28;20029;-46
2023/01/30 00:28:05;;;;;;;9.68;6.82;;;;;;;;;;10446093;28;20079;-46
2023/01/30 00:33:06;;;;;;;9.38;6.13;;;;;;;;;;10445714;28;20035;-45
2023/01/30 00:38:06;;;;;;;7.80;5.88;;;;;;;;;;10430945;28;20045;-46
2023/01/30 00:48:31;;;;;;;15.68;6.65;;;;;;;;;;10397728;28;20104;-47
2023/01/30 00:53:32;;;;;;;8.88;6.65;;;;;;;;;;10426976;28;20392;-49
2023/01/30 00:58:32;;;;;;;9.07;6.35;;;;;;;;;;10448328;28;20476;-47
2023/01/30 01:03:33;;;;;;;8.98;6.15;;;;;;;;;;10442131;28;20029;-47
2023/01/30 01:08:34;;;;;;;9.18;5.95;;;;;;;;;;10436006;28;20021;-48
2023/01/30 01:13:34;;;;;;;10.80;7.28;;;;;;;;;;10430716;28;20087;-49
2023/01/30 01:18:35;;;;;;;8.20;6.15;;;;;;;;;;10424970;28;20032;-48
2023/01/30 01:23:36;;;;;;;10.52;7.15;;;;;;;;;;10422041;28;20033;-47
2023/01/30 01:28:37;;;;;;;11.52;6.45;;;;;;;;;;10434047;28;20017;-49
2023/01/30 01:33:38;;;;;;;8.35;6.18;;;;;;;;;;10441386;28;20029;-48
2023/01/30 01:38:41;;;;;;;8.52;6.30;;;;;;;;;;10452123;28;20372;-48
2023/01/30 01:44:10;;;;;;;8.27;5.93;;;;;;;;;;10439834;28;20266;-48
2023/01/30 01:49:26;;;;;;;8.07;5.95;;;;;;;;;;10441650;28;20022;-47
2023/01/30 01:54:26;;;;;;;9.88;6.63;;;;;;;;;;10448772;28;20562;-52
2023/01/30 01:59:37;;;;;;;8.45;6.32;;;;;;;;;;10431026;28;20021;-47
2023/01/30 02:05:01;;;;;;;8.70;6.50;;;;;;;;;;10392051;28;20026;-46
2023/01/30 02:10:03;;;;;;;8.23;6.13;;;;;;;;;;10411149;28;20542;-46
2023/01/30 02:15:04;;;;;;;9.25;6.70;;;;;;;;;;10409933;28;20021;-47
2023/01/30 02:20:53;;;;;;;8.20;6.00;;;;;;;;;;10394380;28;20087;-47
2023/01/30 02:26:00;;;;;;;11.23;6.32;;;;;;;;;;10410845;28;20033;-46
2023/01/30 02:31:45;;;;;;;9.18;6.63;;;;;;;;;;10409869;28;20013;-48
2023/01/30 02:37:13;;;;;;;8.85;6.63;;;;;;;;;;10394613;28;20200;-48
2023/01/30 02:42:42;;;;;;;8.52;6.80;;;;;;;;;;10415994;28;20033;-46
2023/01/30 02:48:09;;;;;;;9.47;6.97;;;;;;;;;;10414705;28;20048;-47
2023/01/30 02:53:10;;;;;;;9.20;6.88;;;;;;;;;;10412028;28;20591;-49
2023/01/30 02:58:11;;;;;;;7.75;6.68;;;;;;;;;;10408772;28;20025;-46
2023/01/30 03:03:48;;;;;;;9.50;6.72;;;;;;;;;;10431889;28;20445;-48
2023/01/30 03:09:00;;;;;;;7.45;6.22;;;;;;;;;;10414429;28;20033;-46
2023/01/30 03:14:10;;;;;;;9.30;6.57;;;;;;;;;;10416254;28;20477;-46
2023/01/30 03:19:12;;;;;;;8.80;6.47;;;;;;;;;;10405720;28;20018;-47
2023/01/30 03:24:14;;;;;;;9.80;6.55;;;;;;;;;;10428637;28;20465;-49
2023/01/30 03:29:15;;;;;;;8.43;6.25;;;;;;;;;;10435946;28;20044;-46
2023/01/30 03:34:15;;;;;;;9.98;6.40;;;;;;;;;;10418534;28;20021;-49
2023/01/30 03:39:16;;;;;;;8.55;6.65;;;;;;;;;;10407136;28;20045;-46
2023/01/30 03:44:16;;;;;;;9.63;7.20;;;;;;;;;;10408033;28;20045;-47
2023/01/30 03:49:17;;;;;;;9.05;6.68;;;;;;;;;;10407699;28;20018;-46
2023/01/30 03:54:18;;;;;;;8.80;6.72;;;;;;;;;;10407892;28;20029;-50
2023/01/30 03:59:18;;;;;;;10.18;7.25;;;;;;;;;;10408236;28;20167;-46
2023/01/30 04:04:19;;;;;;;9.23;6.95;;;;;;;;;;10403942;28;20044;-47
2023/01/30 04:09:19;;;;;;;9.43;7.15;;;;;;;;;;10408452;28;20030;-46
2023/01/30 04:14:20;;;;;;;8.30;6.65;;;;;;;;;;10407599;28;20389;-45
2023/01/30 04:19:20;;;;;;;8.43;6.63;;;;;;;;;;10406538;28;20033;-47
2023/01/30 04:24:21;;;;;;;10.50;6.68;;;;;;;;;;10406859;28;20025;-48
2023/01/30 04:29:22;;;;;;;10.43;7.20;;;;;;;;;;10413360;28;20029;-47
2023/01/30 04:34:22;;;;;;;11.88;6.95;;;;;;;;;;10415333;28;20266;-46
2023/01/30 04:39:23;;;;;;;10.90;6.80;;;;;;;;;;10442162;28;20059;-46
2023/01/30 04:44:24;;;;;;;8.88;6.70;;;;;;;;;;10423585;28;20021;-46
2023/01/30 04:49:24;;;;;;;9.68;7.18;;;;;;;;;;10413805;28;20358;-49
2023/01/30 04:54:25;;;;;;;10.93;7.38;;;;;;;;;;10413928;28;20436;-47
2023/01/30 04:59:25;;;;;;;10.80;6.80;;;;;;;;;;10414840;28;20021;-47
2023/01/30 05:04:26;;;;;;;8.75;6.75;;;;;;;;;;10415214;28;20032;-48
2023/01/30 05:09:27;;;;;;;10.52;7.10;;;;;;;;;;10414924;28;20030;-47
2023/01/30 05:14:27;;;;;;;9.18;6.93;;;;;;;;;;10413080;28;20021;-46
2023/01/30 05:19:28;;;;;;;8.52;6.78;;;;;;;;;;10412832;28;20032;-48
2023/01/30 05:24:28;;;;;;;10.15;7.38;;;;;;;;;;10419101;28;20079;-50
2023/01/30 05:29:29;;;;;;;10.15;6.63;;;;;;;;;;10438325;28;20022;-50
2023/01/30 05:34:29;;;;;;;10.77;7.82;;;;;;;;;;10419972;28;20035;-47
2023/01/30 05:39:30;;;;;;;9.57;7.00;;;;;;;;;;10423996;28;20042;-48
2023/01/30 05:44:31;;;;;;;11.27;7.68;;;;;;;;;;10411792;28;20372;-46
2023/01/30 05:49:32;;;;;;;9.18;6.90;;;;;;;;;;10412429;28;20229;-50
2023/01/30 05:54:33;;;;;;;12.75;6.95;;;;;;;;;;10410639;28;20045;-49
2023/01/30 05:59:34;;;;;;;9.35;6.50;;;;;;;;;;10437745;28;20021;-49
2023/01/30 06:04:34;;;;;;;8.52;6.80;;;;;;;;;;10438659;28;20040;-48
2023/01/30 06:09:35;;;;;;;9.90;6.88;;;;;;;;;;10441822;28;20029;-60
2023/01/30 06:14:36;;;;;;;10.50;6.32;;;;;;;;;;10439503;28;20032;-47
2023/01/30 06:19:36;;;;;;;10.32;6.57;;;;;;;;;;10431835;28;20025;-62
2023/01/30 06:24:37;;;;;;;9.82;6.90;;;;;;;;;;10444807;28;20036;-48
2023/01/30 06:29:37;;;;;;;9.90;7.82;;;;;;;;;;10436464;28;20025;-49
2023/01/30 06:34:38;;;;;;;13.77;9.27;;;;;;;;;;10419016;28;20071;-53
2023/01/30 06:39:38;;;;;;;17.38;10.63;;;;;;;;;;10418670;28;20044;-49
2023/01/30 06:44:39;;;;;;;20.02;10.23;;;;;;;;;;10409879;28;20072;-52
2023/01/30 06:49:40;;;;;;;15.75;10.30;;;;;;;;;;10414877;28;20029;-50
2023/01/30 06:54:40;;;;;;;20.35;10.52;;;;;;;;;;10408790;28;20219;-52
2023/01/30 06:59:41;;;;;;;15.88;10.20;;;;;;;;;;10404832;28;20425;-48
2023/01/30 07:04:41;;;;;;;21.63;10.80;;;;;;;;;;10394726;28;20036;-53
2023/01/30 07:09:43;;;;;;;24.77;11.07;;;;;;;;;;10397412;28;20052;-51
2023/01/30 07:14:43;;;;;;;28.25;11.10;;;;;;;;;;10435522;28;20120;-49
2023/01/30 07:19:45;;;;;;;13.95;10.05;;;;;;;;;;10435017;28;20033;-48
2023/01/30 07:24:45;;;;;;;22.13;10.70;;;;;;;;;;10434902;28;20470;-51
2023/01/30 07:29:46;;;;;;;17.48;10.43;;;;;;;;;;10412359;28;20037;-48
2023/01/30 07:34:47;;;;;;;14.73;10.27;;;;;;;;;;10410295;28;20034;-51
2023/01/30 07:39:47;;;;;;;16.75;10.38;;;;;;;;;;10419773;28;20519;-50
2023/01/30 07:44:48;;;;;;;17.55;10.88;;;;;;;;;;10410675;28;20021;-57
2023/01/30 07:49:49;;;;;;;16.77;10.70;;;;;;;;;;10397906;28;20029;-51
2023/01/30 07:54:49;;;;;;;14.38;9.82;;;;;;;;;;10421221;28;20037;-52
2023/01/30 07:59:50;;;;;;;17.13;10.73;;;;;;;;;;10427532;28;20385;-60
2023/01/30 08:04:50;;;;;;;14.27;10.52;;;;;;;;;;10439966;28;20389;-55
2023/01/30 08:09:51;;;;;;;16.42;9.88;;;;;;;;;;10448340;28;20021;-46
2023/01/30 08:14:51;;;;;;;15.65;10.48;;;;;;;;;;10423957;28;20087;-51
2023/01/30 08:19:52;;;;;;;17.00;11.00;;;;;;;;;;10430304;28;20028;-50
2023/01/30 08:24:52;;;;;;;17.88;10.68;;;;;;;;;;10435635;28;20033;-48
2023/01/30 08:29:53;;;;;;;17.08;10.80;;;;;;;;;;10442136;28;20025;-49
2023/01/30 08:34:54;;;;;;;23.60;11.05;;;;;;;;;;10419889;28;20031;-49
2023/01/30 08:39:54;;;;;;;14.73;10.57;;;;;;;;;;10447687;28;20465;-51
2023/01/30 08:44:55;;;;;;;16.10;10.63;;;;;;;;;;10403511;28;20420;-48
2023/01/30 08:49:55;;;;;;;17.95;10.45;;;;;;;;;;10422022;28;20033;-48
2023/01/30 08:54:56;;;;;;;20.35;10.52;;;;;;;;;;10423025;28;20514;-49
2023/01/30 08:59:57;;;;;;;16.33;11.10;;;;;;;;;;10414349;28;20022;-49
2023/01/30 09:04:57;;;;;;;14.77;10.40;;;;;;;;;;10415451;28;20024;-51
2023/01/30 09:09:58;;;;;;;15.07;10.55;;;;;;;;;;10413731;28;20068;-50
2023/01/30 09:14:59;;;;;;;15.02;10.95;;;;;;;;;;10395799;28;20260;-49
2023/01/30 09:19:59;;;;;;;17.25;10.85;;;;;;;;;;10413087;28;20053;-52
2023/01/30 09:25:00;;;;;;;16.27;10.63;;;;;;;;;;10412999;28;20029;-58
2023/01/30 09:30:01;;;;;;;17.50;10.73;;;;;;;;;;10422302;28;20113;-48
2023/01/30 09:35:03;;;;;;;14.35;10.75;;;;;;;;;;10431854;28;20500;-53
2023/01/30 09:40:05;;;;;;;17.60;10.75;;;;;;;;;;10440640;28;20033;-48
2023/01/30 09:45:43;;;;;;;14.77;10.57;;;;;;;;;;10412722;28;20134;-55
2023/01/30 09:51:39;;;;;;;14.80;11.17;;;;;;;;;;10386764;28;20072;-55
2023/01/30 09:56:40;;;;;;;14.27;10.88;;;;;;;;;;10411957;28;20380;-49
2023/01/30 10:02:26;;;;;;;16.10;10.70;;;;;;;;;;10394239;28;20115;-47
2023/01/30 10:07:59;;;;;;;15.63;10.55;;;;;;;;;;10412115;28;20049;-54
2023/01/30 10:14:03;;;;;;;16.67;10.98;;;;;;;;;;10411664;28;20083;-49
2023/01/30 10:19:26;;;;;;;13.05;10.00;;;;;;;;;;10363617;28;20128;-54
2023/01/30 10:24:54;;;;;;;18.45;11.15;;;;;;;;;;10408034;28;20487;-49
2023/01/30 10:30:00;;;;;;;18.63;10.70;;;;;;;;;;10419397;28;20500;-48
2023/01/30 10:35:14;;;;;;;15.65;10.32;;;;;;;;;;10419804;28;20499;-53
2023/01/30 10:40:40;;;;;;;16.38;10.50;;;;;;;;;;10445803;28;20045;-50
2023/01/30 10:46:10;;;;;;;15.20;10.70;;;;;;;;;;10400518;28;20366;-50
2023/01/30 10:51:34;;;;;;;15.38;10.85;;;;;;;;;;10413815;28;20603;-48
2023/01/30 10:57:02;;;;;;;14.98;10.07;;;;;;;;;;10425932;28;20075;-53
2023/01/30 11:02:11;;;;;;;13.50;10.03;;;;;;;;;;10423502;28;20111;-47
2023/01/30 11:07:12;;;;;;;13.93;9.38;;;;;;;;;;10438018;28;20036;-49
2023/01/30 11:12:14;;;;;;;13.23;9.82;;;;;;;;;;10412027;28;20477;-49
2023/01/30 11:17:21;;;;;;;13.85;9.50;;;;;;;;;;10420896;28;20049;-56
2023/01/30 11:22:27;;;;;;;15.70;10.23;;;;;;;;;;10409640;28;20086;-49
2023/01/30 11:27:33;;;;;;;15.73;9.65;;;;;;;;;;10432061;28;20033;-51
2023/01/30 11:32:34;;;;;;;13.68;9.98;;;;;;;;;;10411113;28;20461;-48
2023/01/30 11:37:41;;;;;;;13.02;9.60;;;;;;;;;;10431108;28;20075;-51
2023/01/30 11:43:04;;;;;;;14.20;9.95;;;;;;;;;;10430566;28;20112;-49
2023/01/30 11:48:19;;;;;;;12.10;9.55;;;;;;;;;;10409002;28;20033;-50
2023/01/30 11:53:24;;;;;;;15.55;9.40;;;;;;;;;;10403743;28;20032;-51
2023/01/30 11:58:33;;;;;;;18.52;9.95;;;;;;;;;;10425982;28;20013;-49
2023/01/30 12:03:44;;;;;;;12.98;8.85;;;;;;;;;;10433669;28;20056;-49
2023/01/30 12:08:44;;;;;;;14.13;8.82;;;;;;;;;;10421933;28;20021;-48
2023/01/30 12:13:46;;;;;;;13.25;9.60;;;;;;;;;;10422081;28;20485;-48
2023/01/30 12:19:10;;;;;;;12.80;9.05;;;;;;;;;;10416074;28;20021;-49
2023/01/30 12:25:00;;;;;;;13.50;9.93;;;;;;;;;;10427904;28;20363;-47
2023/01/30 12:30:28;;;;;;;13.45;9.13;;;;;;;;;;10417992;28;20041;-51
2023/01/30 12:35:56;;;;;;;14.15;9.23;;;;;;;;;;10384818;28;20037;-48
2023/01/30 12:41:36;;;;;;;12.18;8.43;;;;;;;;;;10396172;28;20068;-52
2023/01/30 12:46:48;;;;;;;13.35;9.60;;;;;;;;;;10405845;28;20033;-53
2023/01/30 12:52:08;;;;;;;13.18;9.00;;;;;;;;;;10414306;28;20025;-51
2023/01/30 12:57:23;;;;;;;15.73;9.32;;;;;;;;;;10394871;28;20021;-51
2023/01/30 13:02:50;;;;;;;12.82;9.25;;;;;;;;;;10416173;28;20033;-47
2023/01/30 13:08:03;;;;;;;13.23;8.98;;;;;;;;;;10413501;28;20465;-50
2023/01/30 13:13:21;;;;;;;12.60;8.40;;;;;;;;;;10396103;28;20037;-50
2023/01/30 13:18:46;;;;;;;12.15;8.63;;;;;;;;;;10412871;28;20037;-49
2023/01/30 13:24:12;;;;;;;13.15;8.30;;;;;;;;;;10412281;28;20496;-48
2023/01/30 13:29:38;;;;;;;11.27;8.10;;;;;;;;;;10427970;28;20496;-48
2023/01/30 13:34:43;;;;;;;10.23;7.93;;;;;;;;;;10380039;28;20150;-49
2023/01/30 13:39:58;;;;;;;12.45;8.20;;;;;;;;;;10428578;28;20052;-47
2023/01/30 13:45:00;;;;;;;10.68;7.88;;;;;;;;;;10441405;28;20029;-50
2023/01/30 13:50:44;;;;;;;10.85;7.68;;;;;;;;;;10423212;28;20025;-50
2023/01/30 13:56:01;;;;;;;13.20;7.53;;;;;;;;;;10427645;28;20238;-47
2023/01/30 14:01:02;;;;;;;11.50;7.53;;;;;;;;;;10432443;28;20029;-47
2023/01/30 14:06:29;;;;;;;12.05;7.50;;;;;;;;;;10445770;28;20053;-47
2023/01/30 14:11:36;;;;;;;9.68;7.10;;;;;;;;;;10427248;28;20029;-47
2023/01/30 14:16:50;;;;;;;10.52;7.65;;;;;;;;;;10419209;28;20028;-52
2023/01/30 14:22:00;;;;;;;10.55;7.53;;;;;;;;;;10417926;28;20037;-47
2023/01/30 14:27:03;;;;;;;10.45;7.70;;;;;;;;;;10420425;28;20056;-51
2023/01/30 14:32:34;;;;;;;10.20;7.22;;;;;;;;;;10414557;28;20037;-47
2023/01/30 14:37:36;;;;;;;10.75;7.63;;;;;;;;;;10416614;28;20212;-47
2023/01/30 14:42:36;;;;;;;9.40;6.80;;;;;;;;;;10426620;28;20030;-48
2023/01/30 14:47:37;;;;;;;10.77;7.20;;;;;;;;;;10394651;28;20033;-47
2023/01/30 14:52:40;;;;;;;8.07;6.57;;;;;;;;;;10391431;28;20052;-47
2023/01/30 14:57:57;;;;;;;10.93;6.82;;;;;;;;;;10391542;28;20021;-48
2023/01/30 15:03:05;;;;;;;9.75;6.80;;;;;;;;;;10391722;28;20036;-48
2023/01/30 15:08:22;;;;;;;8.50;6.38;;;;;;;;;;10392846;28;20021;-48
2023/01/30 15:13:55;;;;;;;8.95;6.38;;;;;;;;;;10409925;28;20056;-47
2023/01/30 15:19:18;;;;;;;11.23;7.38;;;;;;;;;;10397048;28;20429;-47
2023/01/30 15:24:40;;;;;;;11.70;6.97;;;;;;;;;;10407542;28;20041;-49
2023/01/30 15:30:21;;;;;;;9.70;6.68;;;;;;;;;;10407106;28;20096;-47
2023/01/30 15:35:27;;;;;;;9.02;6.53;;;;;;;;;;10409183;28;20064;-47
2023/01/30 15:40:30;;;;;;;8.07;6.03;;;;;;;;;;10421076;28;20029;-47
2023/01/30 15:46:04;;;;;;;8.98;6.88;;;;;;;;;;10393251;28;20025;-46
2023/01/30 15:51:11;;;;;;;7.90;6.53;;;;;;;;;;10409160;28;20153;-50
2023/01/30 15:56:26;;;;;;;7.95;6.10;;;;;;;;;;10408425;28;20037;-49
2023/01/30 16:01:28;;;;;;;8.48;5.90;;;;;;;;;;10443948;28;20546;-50
2023/01/30 16:06:35;;;;;;;8.00;5.95;;;;;;;;;;10439963;28;20060;-48
2023/01/30 16:11:40;;;;;;;11.60;6.57;;;;;;;;;;10425202;28;20493;-50
2023/01/30 16:16:50;;;;;;;9.38;6.15;;;;;;;;;;10416729;28;20052;-51
2023/01/30 16:21:54;;;;;;;9.40;5.78;;;;;;;;;;10390223;28;20032;-50
2023/01/30 16:27:00;;;;;;;8.45;6.10;;;;;;;;;;10421209;28;20408;-48
2023/01/30 16:32:10;;;;;;;8.82;6.05;;;;;;;;;;10405748;28;20116;-47
2023/01/30 16:37:19;;;;;;;8.40;5.72;;;;;;;;;;10397865;28;20045;-51
2023/01/30 16:42:26;;;;;;;6.55;5.53;;;;;;;;;;10414576;28;20026;-49
2023/01/30 16:47:30;;;;;;;7.93;6.22;;;;;;;;;;10419691;28;20025;-48
2023/01/30 16:52:36;;;;;;;7.50;5.88;;;;;;;;;;10424875;28;20032;-49
2023/01/30 16:57:51;;;;;;;6.68;5.40;;;;;;;;;;10402307;28;20091;-47
2023/01/30 17:02:59;;;;;;;7.90;6.00;;;;;;;;;;10403080;28;20037;-50
2023/01/30 17:08:00;;;;;;;8.98;6.43;;;;;;;;;;10396115;28;20446;-49
2023/01/30 17:13:01;;;;;;;9.48;6.78;;;;;;;;;;10422565;28;20030;-48
2023/01/30 17:18:02;;;;;;;8.35;6.22;;;;;;;;;;10415085;28;20100;-47
2023/01/30 17:23:07;;;;;;;12.40;6.95;;;;;;;;;;10420830;28;20087;-47
2023/01/30 17:28:17;;;;;;;13.05;7.63;;;;;;;;;;10424172;28;20033;-51
2023/01/30 17:33:17;;;;;;;12.70;7.07;;;;;;;;;;10405740;28;20548;-49
2023/01/30 17:38:18;;;;;;;11.88;7.65;;;;;;;;;;10400792;28;20045;-50
2023/01/30 17:43:19;;;;;;;13.40;7.25;;;;;;;;;;10424468;28;20033;-49
2023/01/30 17:48:19;;;;;;;13.27;7.60;;;;;;;;;;10421974;28;20045;-52
2023/01/30 17:53:20;;;;;;;14.65;7.47;;;;;;;;;;10441077;28;20036;-48
2023/01/30 17:58:20;;;;;;;12.88;7.82;;;;;;;;;;10433176;28;20427;-48
2023/01/30 18:03:21;;;;;;;9.98;7.75;;;;;;;;;;10438415;28;20489;-48
2023/01/30 18:08:22;;;;;;;13.23;7.88;;;;;;;;;;10405123;28;20025;-46
2023/01/30 18:13:22;;;;;;;15.80;9.05;;;;;;;;;;10438327;28;20028;-50
2023/01/30 18:18:23;;;;;;;18.88;8.35;;;;;;;;;;10433613;28;20099;-46
2023/01/30 18:23:24;;;;;;;11.05;8.13;;;;;;;;;;10423108;28;20017;-46
2023/01/30 18:28:24;;;;;;;12.18;8.13;;;;;;;;;;10440182;28;20040;-46
2023/01/30 18:33:25;;;;;;;22.00;9.40;;;;;;;;;;10441820;28;20469;-50
2023/01/30 18:38:26;;;;;;;19.92;9.80;;;;;;;;;;10431283;28;20053;-50
2023/01/30 18:43:27;;;;;;;16.77;9.23;;;;;;;;;;10436640;28;20460;-47
2023/01/30 18:48:30;;;;;;;16.40;10.18;;;;;;;;;;10442846;28;20025;-47
2023/01/30 18:53:31;;;;;;;18.05;10.07;;;;;;;;;;10440449;28;20031;-48
2023/01/30 18:58:32;;;;;;;18.42;10.27;;;;;;;;;;10428271;28;20383;-48
2023/01/30 19:03:33;;;;;;;17.25;9.93;;;;;;;;;;10425567;28;20036;-50
2023/01/30 19:08:34;;;;;;;25.60;10.82;;;;;;;;;;10430480;28;20032;-48
2023/01/30 19:13:36;;;;;;;18.67;9.82;;;;;;;;;;10434805;28;20036;-50
2023/01/30 19:18:36;;;;;;;22.08;10.57;;;;;;;;;;10436014;28;20025;-56
2023/01/30 19:23:37;;;;;;;24.60;10.43;;;;;;;;;;10422186;28;20056;-48
2023/01/30 19:28:40;;;;;;;22.00;9.98;;;;;;;;;;10432168;28;20044;-49
2023/01/30 19:33:43;;;;;;;21.40;10.57;;;;;;;;;;10434249;28;20025;-48
2023/01/30 19:38:46;;;;;;;21.77;10.68;;;;;;;;;;10413991;28;20037;-49
2023/01/30 19:43:47;;;;;;;20.15;10.90;;;;;;;;;;10427830;28;20071;-47
2023/01/30 19:48:48;;;;;;;21.23;10.38;;;;;;;;;;10437138;28;20659;-50
2023/01/30 19:53:54;;;;;;;23.05;10.20;;;;;;;;;;10385816;28;20049;-48
2023/01/30 19:58:57;;;;;;;18.83;9.98;;;;;;;;;;10416649;28;20039;-51
2023/01/30 20:03:59;;;;;;;20.60;10.90;;;;;;;;;;10417869;28;20037;-48
2023/01/30 20:09:09;;;;;;;24.20;11.10;;;;;;;;;;10414453;28;20037;-47
2023/01/30 20:14:10;;;;;;;22.35;10.68;;;;;;;;;;10416135;28;20473;-51
2023/01/30 20:19:14;;;;;;;19.20;10.00;;;;;;;;;;10413656;28;20086;-50
2023/01/30 20:24:15;;;;;;;19.17;10.32;;;;;;;;;;10416768;28;20377;-47
2023/01/30 20:29:16;;;;;;;16.35;9.48;;;;;;;;;;10415644;28;20025;-50
2023/01/30 20:34:17;;;;;;;16.58;9.32;;;;;;;;;;10420939;28;20489;-48
2023/01/30 20:39:20;;;;;;;35.35;10.05;;;;;;;;;;10420210;28;20041;-50
2023/01/30 20:44:21;;;;;;;21.35;10.63;;;;;;;;;;10403661;28;20029;-48
2023/01/30 20:49:22;;;;;;;19.77;9.75;;;;;;;;;;10415798;28;20056;-46
2023/01/30 20:54:23;;;;;;;13.25;8.50;;;;;;;;;;10414898;28;20075;-47
2023/01/30 20:59:25;;;;;;;14.00;8.82;;;;;;;;;;10412260;28;20388;-46
2023/01/30 21:04:26;;;;;;;20.67;9.60;;;;;;;;;;10408488;28;20026;-48
2023/01/30 21:09:28;;;;;;;22.65;9.90;;;;;;;;;;10392322;28;20139;-46
2023/01/30 21:14:29;;;;;;;17.80;9.15;;;;;;;;;;10413369;28;20041;-47
2023/01/30 21:19:30;;;;;;;15.27;9.20;;;;;;;;;;10422008;28;20520;-47
2023/01/30 21:24:31;;;;;;;20.00;9.13;;;;;;;;;;10433665;28;20018;-48
2023/01/30 21:29:40;;;;;;;14.77;9.27;;;;;;;;;;10409355;28;20026;-48
2023/01/30 21:34:40;;;;;;;21.13;8.90;;;;;;;;;;10416598;28;20048;-46
2023/01/30 21:45:01;;;;;;;15.05;9.23;;;;;;;;;;10403661;28;20485;-46
2023/01/30 21:50:01;;;;;;;18.08;8.25;;;;;;;;;;10401449;28;20021;-46
2023/01/30 21:55:02;;;;;;;22.15;9.02;;;;;;;;;;10394880;28;20033;-45
2023/01/30 22:00:04;;;;;;;21.83;10.52;;;;;;;;;;10402808;28;20500;-46
2023/01/30 22:05:05;;;;;;;20.00;8.90;;;;;;;;;;10404957;28;20040;-47
2023/01/30 22:10:06;;;;;;;15.98;8.82;;;;;;;;;;10408734;28;20025;-46
2023/01/30 22:15:08;;;;;;;18.20;7.65;;;;;;;;;;10411350;28;20025;-46
2023/01/30 22:20:10;;;;;;;17.55;8.75;;;;;;;;;;10411367;28;20388;-47
2023/01/30 22:25:10;;;;;;;18.25;8.20;;;;;;;;;;10412183;28;20461;-49
2023/01/30 22:30:11;;;;;;;17.92;8.68;;;;;;;;;;10408176;28;20029;-50
2023/01/30 22:35:12;;;;;;;16.80;7.90;;;;;;;;;;10411184;28;20100;-47
2023/01/30 22:40:14;;;;;;;12.85;7.70;;;;;;;;;;10410246;28;20048;-47
2023/01/30 22:45:15;;;;;;;14.45;8.00;;;;;;;;;;10410986;28;20039;-50
2023/01/30 22:50:16;;;;;;;17.63;7.40;;;;;;;;;;10421759;28;20029;-46
2023/01/30 22:55:16;;;;;;;15.52;8.30;;;;;;;;;;10405548;28;20110;-48
2023/01/30 23:00:17;;;;;;;20.92;8.63;;;;;;;;;;10416821;28;20028;-47
2023/01/30 23:05:18;;;;;;;16.60;7.45;;;;;;;;;;10417561;28;20031;-47
2023/01/30 23:10:18;;;;;;;14.43;7.88;;;;;;;;;;10410762;28;20029;-49
2023/01/30 23:15:19;;;;;;;15.18;7.28;;;;;;;;;;10409874;28;20393;-46
2023/01/30 23:20:19;;;;;;;13.90;7.95;;;;;;;;;;10404143;28;20443;-48
2023/01/30 23:25:20;;;;;;;15.35;8.50;;;;;;;;;;10411465;28;20021;-48
2023/01/30 23:30:20;;;;;;;13.88;8.65;;;;;;;;;;10413114;28;20103;-46
2023/01/30 23:35:21;;;;;;;16.30;8.07;;;;;;;;;;10426351;28;20029;-57
2023/01/30 23:40:22;;;;;;;10.55;6.90;;;;;;;;;;10423062;28;20061;-54
2023/01/30 23:45:27;;;;;;;9.75;7.13;;;;;;;;;;10419840;28;20048;-47
2023/01/30 23:50:27;;;;;;;13.77;7.90;;;;;;;;;;10417951;28;20022;-51
2023/01/30 23:55:28;;;;;;;11.23;7.15;;;;;;;;;;10419514;28;20104;-48
